Terminal Aerodrome Forecast
Issued by NWS Des Moines, IA

Home | Current Version | Previous Version | Text Only | Print | Product List | Glossary On
Versions: 1 2 3 4 5 6 7 8 9 10 11 12 13 14 15 16 17 18 19 20 21 22 23 24 25 26 27 28 29 30 31 32
053
FTUS43 KDMX 241637 AAC
TAFALO
TAF AMD
KALO 241637Z 2417/2512 24009KT P6SM BKN015 OVC060
     FM241900 27006KT P6SM BKN050
     FM242200 30006KT P6SM BKN070=

USA.gov is the U.S. government's official web portal to all federal, state and local government web resources and services.